Time;durP1;ratioP1;P1;durP2;ratioP2;P2;SDS_P1;SDS_P2;PMS_P1;PMS_P2;Temp;Humidity;BMP_temperature;BMP_pressure;BME280_temperature;BME280_humidity;BME280_pressure;Samples;Min_cycle;Max_cycle;Signal;HPM_P1;HPM_P2
2023/07/08 00:00:54;;;;;;;7.30;1.88;;;;;;;20.44;70.31;99798.41;5123224;28;20035;-69
2023/07/08 00:03:20;;;;;;;5.47;1.90;;;;;;;20.43;70.12;99788.66;5123306;28;20065;-69
2023/07/08 00:05:47;;;;;;;6.65;1.92;;;;;;;20.40;70.11;99781.66;5123275;28;20513;-69
2023/07/08 00:08:14;;;;;;;7.90;2.13;;;;;;;20.40;69.89;99775.47;5122945;28;20031;-69
2023/07/08 00:10:40;;;;;;;10.45;1.75;;;;;;;20.41;70.18;99785.22;5104942;28;20016;-69
2023/07/08 00:13:05;;;;;;;7.67;1.97;;;;;;;20.42;70.10;99784.28;5123155;28;20543;-69
2023/07/08 00:15:32;;;;;;;7.57;2.03;;;;;;;20.44;69.99;99774.34;5121364;28;20452;-69
2023/07/08 00:17:59;;;;;;;7.45;2.08;;;;;;;20.46;70.11;99775.13;5101662;28;20562;-69
2023/07/08 00:20:43;;;;;;;5.70;2.15;;;;;;;20.45;70.03;99774.25;5120241;28;20140;-69
2023/07/08 00:23:09;;;;;;;6.63;2.33;;;;;;;20.47;69.88;99761.66;5101516;28;20471;-69
2023/07/08 00:25:35;;;;;;;7.40;2.20;;;;;;;20.50;69.57;99755.28;5115579;28;20076;-69
2023/07/08 00:28:00;;;;;;;6.83;2.40;;;;;;;20.49;69.76;99750.91;5119944;28;20028;-69
2023/07/08 00:30:28;;;;;;;7.43;2.10;;;;;;;20.52;69.98;99753.41;5119863;28;20028;-69
2023/07/08 00:32:55;;;;;;;7.03;2.25;;;;;;;20.54;70.17;99743.47;5119952;28;20512;-69
2023/07/08 00:35:35;;;;;;;8.25;2.28;;;;;;;20.54;69.99;99735.44;5119795;28;20131;-69
2023/07/08 00:38:26;;;;;;;7.13;2.60;;;;;;;20.52;70.46;99734.69;5119710;28;20051;-69
2023/07/08 00:41:16;;;;;;;6.43;2.37;;;;;;;20.51;69.74;99731.16;5119867;28;20027;-69
2023/07/08 00:43:47;;;;;;;6.82;2.30;;;;;;;20.54;69.89;99716.72;5119413;28;20016;-69
2023/07/08 00:46:18;;;;;;;6.72;2.40;;;;;;;20.53;70.12;99724.84;5084474;28;20050;-69
2023/07/08 00:48:45;;;;;;;7.80;2.50;;;;;;;20.49;70.19;99725.00;5119518;28;20015;-69
2023/07/08 00:51:12;;;;;;;8.80;2.53;;;;;;;20.48;69.78;99720.59;5119478;28;20032;-69
2023/07/08 00:53:38;;;;;;;9.70;2.60;;;;;;;20.47;69.63;99712.66;5119072;28;20039;-69
2023/07/08 00:56:35;;;;;;;8.43;2.67;;;;;;;20.41;70.26;99713.00;5100687;28;20387;-69
2023/07/08 00:59:00;;;;;;;10.55;2.85;;;;;;;20.33;70.24;99714.25;5107061;28;20036;-69
2023/07/08 01:01:28;;;;;;;8.40;2.80;;;;;;;20.36;69.67;99700.72;5100800;28;20103;-69
2023/07/08 01:04:02;;;;;;;9.18;2.80;;;;;;;20.37;70.84;99706.94;5119286;28;20103;-69
2023/07/08 01:06:31;;;;;;;7.28;2.70;;;;;;;20.39;69.85;99709.56;5119216;28;20096;-69
2023/07/08 01:09:02;;;;;;;7.63;2.90;;;;;;;20.37;70.11;99702.44;5118982;28;20024;-69
2023/07/08 01:11:27;;;;;;;7.85;3.30;;;;;;;20.41;69.90;99696.97;5118901;28;20056;-69
2023/07/08 01:13:53;;;;;;;8.32;3.25;;;;;;;20.40;70.16;99695.25;5119086;28;20024;-69
2023/07/08 01:16:18;;;;;;;10.90;3.27;;;;;;;20.34;69.97;99699.94;5118640;28;20028;-69
2023/07/08 01:18:52;;;;;;;10.10;3.57;;;;;;;20.37;70.22;99691.75;5116522;28;20400;-69
2023/07/08 01:21:53;;;;;;;9.90;3.20;;;;;;;20.32;71.17;99688.47;5119205;28;20020;-69
2023/07/08 01:24:18;;;;;;;9.32;3.28;;;;;;;20.36;70.26;99690.03;5047369;28;20027;-69
2023/07/08 01:26:45;;;;;;;9.43;3.80;;;;;;;20.40;69.94;99697.91;5118664;28;20406;-69
2023/07/08 01:29:11;;;;;;;10.57;3.90;;;;;;;20.43;70.37;99697.75;5117815;28;20016;-69
2023/07/08 01:31:37;;;;;;;11.52;4.00;;;;;;;20.44;70.19;99703.00;5118504;28;20035;-69
2023/07/08 01:34:03;;;;;;;11.07;3.90;;;;;;;20.46;70.25;99692.22;5118674;28;20028;-68
2023/07/08 01:36:36;;;;;;;8.77;3.63;;;;;;;20.46;70.67;99700.25;5100312;28;20364;-69
2023/07/08 01:39:02;;;;;;;9.65;3.88;;;;;;;20.47;70.20;99689.44;5100113;28;20027;-69
2023/07/08 01:41:28;;;;;;;11.53;3.83;;;;;;;20.46;70.38;99681.53;5118538;28;20032;-69
2023/07/08 01:43:53;;;;;;;10.83;4.20;;;;;;;20.42;70.34;99674.63;5118137;28;20034;-67
2023/07/08 01:46:23;;;;;;;9.70;4.18;;;;;;;20.46;70.98;99678.84;5118409;28;20035;-67
2023/07/08 01:48:56;;;;;;;12.13;3.90;;;;;;;20.47;70.88;99677.91;5118343;28;20032;-67
2023/07/08 01:51:23;;;;;;;10.75;4.25;;;;;;;20.46;70.48;99679.69;5118286;28;20019;-69
2023/07/08 01:53:49;;;;;;;11.43;4.15;;;;;;;20.48;70.90;99671.59;5117712;28;20031;-69
2023/07/08 01:56:15;;;;;;;12.00;3.80;;;;;;;20.50;70.47;99675.06;5117927;28;20031;-69
2023/07/08 01:58:41;;;;;;;12.02;4.30;;;;;;;20.54;70.53;99673.09;5118280;28;20112;-69
2023/07/08 02:01:06;;;;;;;11.00;3.97;;;;;;;20.56;70.88;99684.56;5118043;28;20506;-69
2023/07/08 02:03:32;;;;;;;9.83;4.20;;;;;;;20.56;70.57;99674.72;5099531;28;20103;-69
2023/07/08 02:05:57;;;;;;;14.00;4.33;;;;;;;20.58;70.84;99675.50;5118023;28;20023;-69
2023/07/08 02:08:23;;;;;;;9.97;4.30;;;;;;;20.57;70.81;99684.47;5117973;28;20541;-69
2023/07/08 02:10:55;;;;;;;13.47;4.60;;;;;;;20.60;70.40;99680.75;5118044;28;20269;-69
2023/07/08 02:13:21;;;;;;;14.25;4.43;;;;;;;20.57;71.13;99684.47;5117811;28;20078;-67
2023/07/08 02:15:47;;;;;;;12.13;4.38;;;;;;;20.61;70.79;99688.69;5117446;28;20027;-67
2023/07/08 02:18:12;;;;;;;11.48;4.00;;;;;;;20.64;70.86;99691.22;5115068;28;20024;-69
2023/07/08 02:20:38;;;;;;;11.57;4.60;;;;;;;20.63;71.06;99694.84;5117762;28;20034;-69
2023/07/08 02:23:03;;;;;;;14.30;4.50;;;;;;;20.64;70.93;99683.19;5117689;28;20063;-69
2023/07/08 02:25:29;;;;;;;10.00;4.50;;;;;;;20.65;71.40;99690.28;5117610;28;20119;-69
2023/07/08 02:27:56;;;;;;;13.55;4.90;;;;;;;20.68;71.76;99691.88;5117747;28;20103;-69
2023/07/08 02:30:25;;;;;;;11.43;4.47;;;;;;;20.67;71.89;99683.97;5099234;28;20027;-69
2023/07/08 02:32:56;;;;;;;11.53;4.97;;;;;;;20.67;72.01;99679.47;5117879;28;20039;-69
2023/07/08 02:35:30;;;;;;;13.18;4.80;;;;;;;20.68;72.06;99680.34;5117434;28;20047;-69
2023/07/08 02:37:57;;;;;;;13.25;4.00;;;;;;;20.70;71.99;99676.63;5099204;28;20407;-69
2023/07/08 02:40:24;;;;;;;15.27;5.13;;;;;;;20.75;72.00;99681.72;5117038;28;20023;-69
2023/07/08 02:42:49;;;;;;;14.23;4.97;;;;;;;20.76;72.07;99686.13;5117581;28;20822;-69
2023/07/08 02:45:16;;;;;;;13.33;4.90;;;;;;;20.76;72.38;99676.28;5099003;28;20024;-69
2023/07/08 02:47:42;;;;;;;13.27;5.15;;;;;;;20.81;72.31;99683.22;5117224;28;20027;-69
2023/07/08 02:50:09;;;;;;;11.87;5.17;;;;;;;20.77;72.77;99685.16;5117137;28;20388;-69
2023/07/08 02:52:35;;;;;;;13.05;4.90;;;;;;;20.83;72.22;99684.84;5117235;28;20034;-69
2023/07/08 02:55:01;;;;;;;12.88;4.80;;;;;;;20.87;72.17;99686.44;5117231;28;20057;-69
2023/07/08 02:57:26;;;;;;;15.87;5.63;;;;;;;20.89;72.55;99687.19;5117029;28;20051;-69
2023/07/08 02:59:52;;;;;;;13.40;5.60;;;;;;;20.90;72.59;99675.53;5117215;28;20024;-69
2023/07/08 03:02:17;;;;;;;18.13;5.73;;;;;;;20.89;72.55;99684.53;5117363;28;20012;-69
2023/07/08 03:04:42;;;;;;;14.23;5.03;;;;;;;20.97;72.20;99691.25;5117101;28;20019;-69
2023/07/08 03:07:11;;;;;;;13.90;5.63;;;;;;;20.97;72.93;99688.56;5099010;28;20055;-69
2023/07/08 03:09:40;;;;;;;15.65;5.45;;;;;;;21.01;72.20;99690.13;5116849;28;20020;-69
2023/07/08 03:12:07;;;;;;;11.73;4.90;;;;;;;21.02;71.91;99686.50;5089889;28;20559;-69
2023/07/08 03:14:32;;;;;;;12.70;5.07;;;;;;;21.04;72.43;99687.25;5117117;28;20035;-69
2023/07/08 03:16:58;;;;;;;10.33;4.60;;;;;;;21.06;72.29;99685.34;5098514;28;20031;-69
2023/07/08 03:19:23;;;;;;;11.67;4.50;;;;;;;21.04;72.24;99685.47;5114962;28;20020;-69
2023/07/08 03:21:48;;;;;;;14.03;4.80;;;;;;;21.06;71.90;99682.69;5117129;28;20318;-69
2023/07/08 03:24:17;;;;;;;12.93;5.07;;;;;;;21.05;72.35;99680.97;5116916;28;20024;-69
2023/07/08 03:26:44;;;;;;;14.75;5.05;;;;;;;21.07;72.49;99679.06;5117111;28;20539;-69
2023/07/08 03:29:18;;;;;;;13.63;5.07;;;;;;;21.06;72.17;99677.31;5098575;28;20065;-69
2023/07/08 03:31:45;;;;;;;14.03;4.60;;;;;;;21.04;72.61;99680.13;5116781;28;20028;-69
2023/07/08 03:34:15;;;;;;;11.93;4.78;;;;;;;21.09;71.88;99671.78;5116920;28;20076;-69
2023/07/08 03:36:48;;;;;;;11.55;4.32;;;;;;;21.11;71.66;99680.63;5117041;28;20023;-69
2023/07/08 03:39:17;;;;;;;11.15;4.70;;;;;;;21.13;71.79;99678.72;5116833;28;20023;-69
2023/07/08 03:41:43;;;;;;;10.82;5.03;;;;;;;21.15;71.89;99682.16;5116688;28;20027;-69
2023/07/08 03:44:09;;;;;;;11.17;4.37;;;;;;;21.11;71.93;99683.31;5098313;28;20169;-69
2023/07/08 03:46:34;;;;;;;17.73;5.10;;;;;;;21.14;72.10;99679.56;5116813;28;20064;-69
2023/07/08 03:49:00;;;;;;;13.03;5.00;;;;;;;21.14;71.83;99690.28;5116707;28;20028;-69
2023/07/08 03:51:31;;;;;;;9.97;4.50;;;;;;;21.15;71.93;99694.69;5118459;28;20061;-69
2023/07/08 03:53:57;;;;;;;13.15;5.20;;;;;;;21.14;72.22;99706.34;5120520;28;20039;-69
2023/07/08 03:56:23;;;;;;;12.90;4.88;;;;;;;21.17;72.07;99698.13;5120307;28;20411;-69
2023/07/08 03:58:49;;;;;;;17.93;4.80;;;;;;;21.19;71.77;99706.94;5120640;28;20027;-69
2023/07/08 04:01:17;;;;;;;12.57;5.05;;;;;;;21.20;71.56;99704.19;5085338;28;20089;-69
2023/07/08 04:03:43;;;;;;;12.32;4.53;;;;;;;21.19;71.76;99702.47;5120478;28;20135;-69
2023/07/08 04:06:09;;;;;;;15.35;5.38;;;;;;;21.20;72.15;99701.50;5120482;28;20106;-69
2023/07/08 04:08:34;;;;;;;12.60;5.17;;;;;;;21.22;71.67;99701.44;5120397;28;20054;-69
2023/07/08 04:10:59;;;;;;;13.33;4.87;;;;;;;21.23;71.88;99704.00;5120334;28;20023;-69
2023/07/08 04:13:25;;;;;;;10.90;4.77;;;;;;;21.21;71.98;99703.22;5120331;28;20514;-69
2023/07/08 04:16:04;;;;;;;11.90;4.80;;;;;;;21.23;71.63;99712.03;5120012;28;20020;-69
2023/07/08 04:18:29;;;;;;;19.13;5.63;;;;;;;21.23;71.45;99712.03;5101824;28;20028;-69
2023/07/08 04:20:55;;;;;;;13.07;5.03;;;;;;;21.25;71.77;99711.09;5120237;28;20024;-69
2023/07/08 04:23:21;;;;;;;15.63;4.80;;;;;;;21.25;71.27;99719.13;5119986;28;20027;-69
2023/07/08 04:25:52;;;;;;;11.82;4.40;;;;;;;21.25;71.20;99720.00;5119970;28;20031;-69
2023/07/08 04:28:18;;;;;;;16.45;5.32;;;;;;;21.23;71.32;99722.75;5101853;28;20031;-69
2023/07/08 04:30:43;;;;;;;14.07;4.90;;;;;;;21.22;71.42;99723.69;5119978;28;20503;-69
2023/07/08 04:33:13;;;;;;;11.93;5.07;;;;;;;21.18;71.61;99724.81;5119938;28;20016;-69
2023/07/08 04:35:40;;;;;;;12.00;4.75;;;;;;;21.20;70.99;99728.28;5120059;28;20099;-69
2023/07/08 04:38:16;;;;;;;11.27;4.68;;;;;;;21.20;71.06;99725.59;5101679;28;20031;-69
2023/07/08 04:40:41;;;;;;;12.45;4.70;;;;;;;21.22;71.01;99725.53;5101192;28;20051;-69
2023/07/08 04:43:07;;;;;;;13.23;4.80;;;;;;;21.19;71.36;99726.56;5120009;28;20043;-69
2023/07/08 04:45:33;;;;;;;12.17;4.80;;;;;;;21.19;71.40;99731.91;5119525;28;20020;-69
2023/07/08 04:47:58;;;;;;;14.15;4.80;;;;;;;21.17;71.41;99732.94;5119775;28;20054;-69
2023/07/08 04:50:24;;;;;;;10.40;4.87;;;;;;;21.18;71.36;99727.50;5119636;28;20031;-69
2023/07/08 04:52:49;;;;;;;11.32;4.50;;;;;;;21.21;70.72;99737.16;5119562;28;20023;-69
2023/07/08 04:55:15;;;;;;;13.07;4.70;;;;;;;21.18;71.47;99729.31;5119391;28;20024;-69
2023/07/08 04:57:41;;;;;;;11.77;4.80;;;;;;;21.20;70.92;99722.94;5095474;28;20044;-69
2023/07/08 05:00:09;;;;;;;11.73;4.57;;;;;;;21.22;70.69;99726.38;5090162;28;20057;-69
2023/07/08 05:02:34;;;;;;;13.07;4.72;;;;;;;21.19;70.92;99726.56;5098313;28;20020;-69
2023/07/08 05:05:00;;;;;;;14.53;5.00;;;;;;;21.19;71.08;99733.72;5097630;28;20032;-69
2023/07/08 05:07:26;;;;;;;11.57;4.82;;;;;;;21.22;71.12;99737.09;5098846;28;20020;-69
2023/07/08 05:09:51;;;;;;;13.53;4.90;;;;;;;21.20;71.25;99744.34;5098479;28;20077;-69
2023/07/08 05:12:17;;;;;;;15.03;4.93;;;;;;;21.23;71.03;99752.19;5098857;28;20016;-69
2023/07/08 05:14:42;;;;;;;12.27;4.90;;;;;;;21.27;70.83;99749.34;5098424;28;20557;-69
2023/07/08 05:17:08;;;;;;;12.30;4.97;;;;;;;21.34;70.73;99759.63;5099070;28;20101;-69
2023/07/08 05:19:34;;;;;;;15.63;4.82;;;;;;;21.31;71.25;99765.16;5098228;28;20488;-68
2023/07/08 05:21:59;;;;;;;12.73;4.50;;;;;;;21.38;70.96;99768.34;5097708;28;20439;-68
2023/07/08 05:24:25;;;;;;;14.33;5.20;;;;;;;21.36;71.11;99764.91;5095599;28;20028;-69
2023/07/08 05:26:50;;;;;;;14.18;5.80;;;;;;;21.34;71.36;99759.63;5094995;28;20484;-69
2023/07/08 05:29:15;;;;;;;12.87;5.87;;;;;;;21.35;71.10;99764.03;5096927;28;20373;-69
2023/07/08 05:31:41;;;;;;;13.43;5.23;;;;;;;21.36;71.27;99768.44;5096084;28;20058;-68
2023/07/08 05:34:06;;;;;;;16.17;5.70;;;;;;;21.34;71.41;99756.06;5097171;28;20073;-69
2023/07/08 05:36:31;;;;;;;15.60;5.80;;;;;;;21.39;71.29;99758.50;5097422;28;20107;-69
2023/07/08 05:38:57;;;;;;;11.53;5.43;;;;;;;21.42;71.54;99764.53;5097287;28;20028;-69
2023/07/08 05:41:22;;;;;;;12.70;5.27;;;;;;;21.46;71.31;99768.78;5097474;28;20733;-69
2023/07/08 05:43:48;;;;;;;11.97;5.20;;;;;;;21.50;71.32;99770.31;5097352;28;20020;-69
2023/07/08 05:46:13;;;;;;;13.90;5.80;;;;;;;21.65;71.14;99760.56;5096359;28;20448;-69
2023/07/08 05:48:39;;;;;;;19.55;5.88;;;;;;;21.91;70.29;99766.19;5097202;28;20088;-69
2023/07/08 05:51:04;;;;;;;15.93;5.87;;;;;;;22.13;70.01;99756.00;5096848;28;20687;-69
2023/07/08 05:53:30;;;;;;;13.20;5.55;;;;;;;22.32;69.42;99750.38;5097236;28;20027;-70
2023/07/08 05:55:55;;;;;;;17.53;6.63;;;;;;;22.50;69.11;99745.72;5097107;28;20034;-68
2023/07/08 05:58:21;;;;;;;16.00;6.23;;;;;;;22.60;68.93;99748.69;5117440;28;20534;-68
2023/07/08 06:00:46;;;;;;;16.97;6.17;;;;;;;22.71;69.01;99761.44;5116910;28;20031;-68
2023/07/08 06:03:12;;;;;;;19.70;6.43;;;;;;;22.83;68.66;99763.34;5116944;28;20633;-68
2023/07/08 06:05:38;;;;;;;15.23;6.20;;;;;;;22.91;68.64;99761.03;5098456;28;20076;-68
2023/07/08 06:08:04;;;;;;;16.92;6.40;;;;;;;23.05;68.34;99764.66;5115887;28;20023;-68
2023/07/08 06:10:29;;;;;;;17.45;6.30;;;;;;;23.19;68.12;99772.66;5116921;28;20050;-68
2023/07/08 06:12:54;;;;;;;15.80;6.53;;;;;;;23.25;68.21;99773.22;5116833;28;20024;-66
2023/07/08 06:15:20;;;;;;;15.97;6.67;;;;;;;23.37;67.92;99777.84;5117081;28;20055;-66
2023/07/08 06:17:45;;;;;;;13.13;6.43;;;;;;;23.53;67.82;99783.06;5115371;28;20049;-66
2023/07/08 06:20:11;;;;;;;13.57;5.93;;;;;;;23.59;67.79;99787.19;5118126;28;20102;-66
2023/07/08 06:22:36;;;;;;;14.82;6.65;;;;;;;23.66;67.66;99783.09;5099274;28;20399;-67
2023/07/08 06:25:01;;;;;;;16.77;6.53;;;;;;;23.70;67.63;99786.47;5117716;28;20419;-66
2023/07/08 06:27:27;;;;;;;16.73;7.10;;;;;;;23.71;67.70;99790.88;5117773;28;20175;-66
2023/07/08 06:29:53;;;;;;;14.55;6.60;;;;;;;23.79;67.84;99799.28;5117609;28;20047;-66
2023/07/08 06:32:19;;;;;;;13.20;6.32;;;;;;;23.86;67.56;99794.34;5117452;28;20111;-66
2023/07/08 06:34:44;;;;;;;17.00;6.70;;;;;;;23.93;67.33;99787.59;5117643;28;20484;-66
2023/07/08 06:37:09;;;;;;;18.57;6.50;;;;;;;24.02;67.12;99789.72;5117421;28;20098;-66
2023/07/08 06:39:35;;;;;;;16.43;6.87;;;;;;;24.07;67.31;99792.94;5117383;28;20561;-66
2023/07/08 06:42:00;;;;;;;15.90;6.10;;;;;;;24.13;66.75;99796.16;5099219;28;20069;-66
2023/07/08 06:44:26;;;;;;;16.13;6.00;;;;;;;24.19;67.11;99791.22;5099322;28;20035;-66
2023/07/08 06:46:51;;;;;;;19.03;7.07;;;;;;;24.30;66.87;99793.19;5117593;28;20077;-66
2023/07/08 06:49:17;;;;;;;15.75;6.13;;;;;;;24.36;66.68;99798.13;5117647;28;20042;-66
2023/07/08 06:51:44;;;;;;;15.40;6.07;;;;;;;24.42;66.36;99795.97;5117260;28;20506;-66
2023/07/08 06:54:11;;;;;;;14.30;6.47;;;;;;;24.52;66.04;99803.28;5117231;28;20072;-66
2023/07/08 06:56:40;;;;;;;14.43;5.43;;;;;;;24.64;66.30;99798.88;5117125;28;20535;-66
2023/07/08 06:59:09;;;;;;;12.87;5.50;;;;;;;24.69;65.66;99801.25;5117567;28;20077;-66
2023/07/08 07:01:36;;;;;;;17.80;6.43;;;;;;;24.75;65.83;99803.53;5117053;28;20023;-66
2023/07/08 07:04:01;;;;;;;16.92;6.00;;;;;;;24.83;65.09;99810.19;5117295;28;20461;-66
2023/07/08 07:06:27;;;;;;;15.33;6.83;;;;;;;24.82;65.08;99800.41;5117315;28;20103;-67
2023/07/08 07:08:52;;;;;;;14.33;5.70;;;;;;;24.92;65.15;99810.41;5117081;28;20055;-67
2023/07/08 07:11:19;;;;;;;14.07;5.50;;;;;;;24.83;65.34;99811.06;5117130;28;20023;-66
2023/07/08 07:13:45;;;;;;;13.27;5.17;;;;;;;24.80;65.37;99811.28;5117192;28;20106;-66
2023/07/08 07:16:10;;;;;;;14.48;5.55;;;;;;;24.79;65.15;99815.81;5116770;28;20051;-66
2023/07/08 07:18:36;;;;;;;13.50;5.00;;;;;;;24.70;65.77;99812.88;5098877;28;20028;-67
2023/07/08 07:21:01;;;;;;;13.67;5.57;;;;;;;24.58;65.76;99818.16;5117211;28;20034;-66
2023/07/08 07:23:26;;;;;;;17.75;5.88;;;;;;;24.73;65.35;99824.28;5116866;28;20026;-66
2023/07/08 07:25:52;;;;;;;15.37;5.63;;;;;;;24.92;65.00;99829.25;5119408;28;20030;-66
2023/07/08 07:28:17;;;;;;;14.20;5.20;;;;;;;25.08;64.43;99830.84;5121293;28;20024;-66
2023/07/08 07:30:44;;;;;;;10.93;5.30;;;;;;;25.21;64.47;99831.72;5120824;28;20024;-66
2023/07/08 07:33:10;;;;;;;14.68;5.00;;;;;;;25.37;63.90;99841.34;5121118;28;20134;-67
2023/07/08 07:35:35;;;;;;;15.32;5.65;;;;;;;25.53;63.92;99840.25;5121257;28;20499;-67
2023/07/08 07:38:01;;;;;;;13.57;5.20;;;;;;;25.62;63.11;99832.34;5120907;28;20023;-67
2023/07/08 07:40:26;;;;;;;14.97;4.93;;;;;;;25.76;63.35;99846.63;5120978;28;20387;-67
2023/07/08 07:42:52;;;;;;;13.80;4.97;;;;;;;25.95;62.67;99846.13;5121062;28;20023;-67
2023/07/08 07:45:17;;;;;;;13.10;4.80;;;;;;;25.81;62.61;99844.47;5102354;28;20445;-67
2023/07/08 07:47:43;;;;;;;14.80;5.07;;;;;;;25.79;62.82;99846.41;5120741;28;20015;-67
2023/07/08 07:50:09;;;;;;;14.90;5.20;;;;;;;25.67;63.15;99848.16;5120874;28;20084;-67
2023/07/08 07:52:35;;;;;;;15.43;4.78;;;;;;;25.88;62.05;99852.94;5120792;28;20016;-67
2023/07/08 07:55:02;;;;;;;13.20;5.00;;;;;;;25.95;61.96;99851.53;5102299;28;20030;-67
2023/07/08 07:57:27;;;;;;;14.52;4.78;;;;;;;25.98;62.30;99845.88;5120628;28;20475;-67
2023/07/08 07:59:53;;;;;;;10.50;4.80;;;;;;;25.95;62.46;99835.34;5120542;28;20125;-67
2023/07/08 08:02:19;;;;;;;14.30;4.77;;;;;;;25.88;62.56;99840.31;5120618;28;20062;-67
2023/07/08 08:04:45;;;;;;;15.10;5.32;;;;;;;26.09;62.14;99832.44;5120465;28;20020;-67
2023/07/08 08:07:10;;;;;;;16.80;5.27;;;;;;;26.30;61.99;99834.50;5120501;28;20039;-67
2023/07/08 08:09:37;;;;;;;12.13;4.70;;;;;;;26.30;61.40;99825.56;5120309;28;20261;-67
2023/07/08 08:12:03;;;;;;;14.55;5.10;;;;;;;26.26;60.87;99829.44;5111296;28;20028;-67
2023/07/08 08:14:29;;;;;;;11.90;4.70;;;;;;;26.14;61.43;99833.91;5120315;28;20495;-67
2023/07/08 08:16:54;;;;;;;14.07;5.13;;;;;;;26.28;61.55;99833.75;5120162;28;20053;-67
2023/07/08 08:19:20;;;;;;;13.07;4.80;;;;;;;26.37;61.19;99830.31;5117866;28;20487;-67
2023/07/08 08:21:45;;;;;;;13.70;4.90;;;;;;;26.60;60.84;99835.78;5120288;28;20024;-67
2023/07/08 08:24:11;;;;;;;14.80;4.70;;;;;;;26.85;60.74;99836.56;5119909;28;20028;-67
2023/07/08 08:26:36;;;;;;;14.57;4.77;;;;;;;27.02;60.10;99832.53;5101582;28;20051;-68
2023/07/08 08:29:02;;;;;;;15.37;4.87;;;;;;;27.19;60.12;99836.56;5120062;28;20019;-68
2023/07/08 08:31:27;;;;;;;12.52;5.03;;;;;;;27.32;59.68;99825.63;5101878;28;20055;-68
2023/07/08 08:33:53;;;;;;;17.23;4.63;;;;;;;27.43;59.09;99827.44;5119754;28;20032;-68
2023/07/08 08:36:20;;;;;;;14.80;5.07;;;;;;;27.30;58.93;99832.13;5119772;28;20558;-67
2023/07/08 08:38:46;;;;;;;13.15;4.95;;;;;;;27.35;58.54;99838.00;5119511;28;20019;-68
2023/07/08 08:41:24;;;;;;;13.70;4.87;;;;;;;27.42;59.00;99844.66;5119915;28;20065;-68
2023/07/08 08:43:50;;;;;;;13.93;5.18;;;;;;;27.49;58.39;99845.84;5119568;28;20012;-69
2023/07/08 08:46:18;;;;;;;13.93;5.10;;;;;;;27.60;58.36;99838.72;5119767;28;20028;-68
2023/07/08 08:49:27;;;;;;;18.27;4.63;;;;;;;27.70;58.04;99833.41;5119629;28;20024;-69
2023/07/08 08:51:53;;;;;;;12.00;4.60;;;;;;;27.77;57.63;99835.47;5066346;28;20053;-69
2023/07/08 08:54:18;;;;;;;15.07;5.10;;;;;;;27.93;57.25;99845.03;5119500;28;20023;-70
2023/07/08 08:56:47;;;;;;;12.35;4.60;;;;;;;27.99;56.52;99836.38;5119376;28;20048;-69
2023/07/08 08:59:31;;;;;;;13.87;4.90;;;;;;;28.05;56.94;99838.56;5119628;28;20034;-69
2023/07/08 09:01:57;;;;;;;15.60;5.30;;;;;;;28.17;56.65;99843.97;5101083;28;20571;-69
2023/07/08 09:04:32;;;;;;;13.48;4.93;;;;;;;28.29;57.16;99834.78;5119377;28;20032;-69
2023/07/08 09:07:12;;;;;;;11.93;4.60;;;;;;;28.52;56.64;99840.06;5101375;28;20027;-69
2023/07/08 09:10:01;;;;;;;12.63;4.97;;;;;;;28.58;55.51;99844.09;5119135;28;20049;-68
2023/07/08 09:12:29;;;;;;;15.50;5.00;;;;;;;28.74;56.00;99832.75;5119207;28;20031;-69
2023/07/08 09:14:55;;;;;;;12.52;4.88;;;;;;;28.88;55.34;99848.72;5119125;28;20023;-68
2023/07/08 09:17:30;;;;;;;11.73;4.68;;;;;;;28.99;55.38;99847.75;5116279;28;20081;-69
2023/07/08 09:20:10;;;;;;;13.02;4.63;;;;;;;29.15;55.31;99854.50;5119339;28;20055;-69
2023/07/08 09:22:48;;;;;;;10.10;4.70;;;;;;;29.25;54.78;99863.56;5118620;28;20044;-69
2023/07/08 09:25:32;;;;;;;15.13;5.13;;;;;;;29.41;54.74;99867.59;5119261;28;20107;-69
2023/07/08 09:27:57;;;;;;;14.30;5.45;;;;;;;29.51;53.57;99869.34;5119283;28;20368;-69
2023/07/08 09:30:28;;;;;;;12.07;4.88;;;;;;;29.59;53.61;99870.53;5118840;28;20027;-69
2023/07/08 09:32:54;;;;;;;16.50;5.17;;;;;;;29.76;53.39;99877.13;5118826;28;20031;-69
2023/07/08 09:35:26;;;;;;;14.20;5.75;;;;;;;29.76;53.31;99877.97;5118845;28;20046;-69
2023/07/08 09:37:52;;;;;;;12.70;5.20;;;;;;;29.75;52.06;99876.25;5118490;28;20028;-69
2023/07/08 09:40:31;;;;;;;18.30;5.15;;;;;;;29.72;52.60;99876.53;5118568;28;20034;-69
2023/07/08 09:43:34;;;;;;;13.55;4.70;;;;;;;29.47;53.11;99884.19;5100414;28;20024;-69
2023/07/08 09:45:59;;;;;;;14.60;5.50;;;;;;;29.51;52.90;99885.63;5077859;28;20093;-70
2023/07/08 09:48:28;;;;;;;14.00;4.82;;;;;;;29.59;52.77;99886.81;5113518;28;20019;-69
2023/07/08 09:50:57;;;;;;;13.93;5.15;;;;;;;29.83;52.81;99888.28;5118554;28;20032;-69
2023/07/08 09:53:22;;;;;;;15.57;4.97;;;;;;;29.98;52.69;99880.59;5118164;28;20034;-69
2023/07/08 09:55:50;;;;;;;12.60;5.57;;;;;;;30.14;51.92;99888.19;5118226;28;20065;-69
2023/07/08 09:58:27;;;;;;;11.55;4.43;;;;;;;30.22;51.15;99885.59;5099610;28;20047;-69
2023/07/08 10:00:59;;;;;;;13.18;4.88;;;;;;;30.39;51.05;99880.47;5118385;28;20039;-69
2023/07/08 10:03:30;;;;;;;15.00;5.17;;;;;;;30.54;50.70;99870.88;5118207;28;20053;-69
2023/07/08 10:06:00;;;;;;;11.82;4.57;;;;;;;30.70;50.69;99872.13;5118326;28;20479;-69
2023/07/08 10:08:34;;;;;;;15.00;5.28;;;;;;;30.68;50.82;99872.28;5118079;28;20023;-69
2023/07/08 10:11:30;;;;;;;12.10;5.25;;;;;;;30.67;49.89;99875.13;5100021;28;20041;-69
2023/07/08 10:14:06;;;;;;;13.25;5.15;;;;;;;30.77;49.87;99876.00;5099165;28;20403;-69
2023/07/08 10:16:34;;;;;;;14.07;5.37;;;;;;;30.82;49.79;99876.41;5117921;28;20020;-69
2023/07/08 10:19:00;;;;;;;12.10;4.95;;;;;;;30.91;49.95;99872.78;5115735;28;20028;-69
2023/07/08 10:21:47;;;;;;;11.57;5.35;;;;;;;30.98;50.37;99873.06;5117963;28;20024;-69
2023/07/08 10:24:35;;;;;;;10.52;4.88;;;;;;;31.18;49.34;99868.38;5117662;28;20476;-69
2023/07/08 10:27:24;;;;;;;14.10;5.68;;;;;;;31.36;49.49;99870.34;5118020;28;20031;-69
2023/07/08 10:30:00;;;;;;;19.33;9.70;;;;;;;31.59;49.09;99869.91;5117767;28;20036;-69
2023/07/08 10:32:53;;;;;;;15.50;6.43;;;;;;;31.69;48.36;99869.84;5117739;28;20085;-69
2023/07/08 10:35:18;;;;;;;26.58;10.10;;;;;;;31.81;48.68;99875.97;5117804;28;20038;-69
2023/07/08 10:38:20;;;;;;;12.83;6.10;;;;;;;31.85;49.02;99880.97;5117542;28;20027;-69
2023/07/08 10:40:56;;;;;;;14.82;5.00;;;;;;;31.98;47.73;99879.69;5117771;28;20024;-68
2023/07/08 10:43:50;;;;;;;12.38;5.15;;;;;;;31.97;47.17;99883.44;5117542;28;20023;-69
2023/07/08 10:46:41;;;;;;;14.03;5.50;;;;;;;32.00;47.52;99886.72;5110166;28;20024;-69
2023/07/08 10:49:32;;;;;;;13.13;5.28;;;;;;;32.06;47.08;99888.81;5099319;28;20023;-69
2023/07/08 10:52:16;;;;;;;16.25;7.68;;;;;;;32.21;47.63;99897.28;5117397;28;20032;-69
2023/07/08 10:54:51;;;;;;;12.75;4.78;;;;;;;32.26;46.67;99896.81;5117429;28;20023;-69
2023/07/08 10:58:04;;;;;;;18.42;9.50;;;;;;;32.20;47.02;99894.72;5117320;28;20048;-69
2023/07/08 11:00:32;;;;;;;14.27;5.43;;;;;;;32.26;46.27;99896.81;5099139;28;20044;-69
2023/07/08 11:03:41;;;;;;;16.23;5.20;;;;;;;32.24;46.70;99896.13;5117446;28;20043;-68
2023/07/08 11:06:22;;;;;;;12.10;5.10;;;;;;;32.25;46.69;99892.38;5117314;28;20037;-68
2023/07/08 11:08:53;;;;;;;12.70;5.00;;;;;;;32.31;46.20;99891.75;5117164;28;20051;-69
2023/07/08 11:11:39;;;;;;;12.90;5.28;;;;;;;32.11;46.17;99890.19;5117135;28;20492;-68
2023/07/08 11:14:42;;;;;;;13.33;5.03;;;;;;;32.38;46.42;99891.16;5116913;28;20028;-68
2023/07/08 11:17:30;;;;;;;13.45;4.95;;;;;;;32.61;46.42;99891.50;5109932;28;20059;-68
2023/07/08 11:20:05;;;;;;;14.07;5.07;;;;;;;32.74;46.13;99902.00;5117356;28;20030;-69
2023/07/08 11:22:32;;;;;;;10.25;4.55;;;;;;;32.91;46.46;99886.63;5098596;28;20024;-69
2023/07/08 11:25:01;;;;;;;14.63;5.18;;;;;;;32.99;45.51;99888.53;5117271;28;20032;-68
2023/07/08 11:27:30;;;;;;;12.57;4.70;;;;;;;33.05;45.35;99882.44;5117017;28;20027;-69
2023/07/08 11:30:11;;;;;;;13.48;4.80;;;;;;;33.15;45.36;99882.31;5117181;28;20031;-68
2023/07/08 11:32:39;;;;;;;14.95;4.82;;;;;;;33.19;44.99;99890.00;5117242;28;20045;-69
2023/07/08 11:35:13;;;;;;;13.23;4.75;;;;;;;33.19;45.20;99870.91;5116894;28;20031;-69
2023/07/08 11:37:39;;;;;;;12.77;5.20;;;;;;;33.26;44.68;99883.88;5098600;28;20503;-69